createdAt,value
2022-10-27T00:00:10.748Z,14.59
2022-10-27T00:02:37.377Z,14.55
2022-10-27T00:05:04.120Z,14.54
2022-10-27T00:07:30.552Z,14.48
2022-10-27T00:09:57.272Z,14.46
2022-10-27T00:12:28.673Z,14.44
2022-10-27T00:14:55.152Z,14.43
2022-10-27T00:17:21.629Z,14.42
2022-10-27T00:19:48.225Z,14.40
2022-10-27T00:22:14.891Z,14.39
2022-10-27T00:24:43.236Z,14.35
2022-10-27T00:27:09.878Z,14.33
2022-10-27T00:29:36.603Z,14.30
2022-10-27T00:32:03.180Z,14.27
2022-10-27T00:34:29.895Z,14.23
2022-10-27T00:36:56.383Z,14.21
2022-10-27T00:39:22.815Z,14.18
2022-10-27T00:41:49.527Z,14.17
2022-10-27T00:44:33.329Z,14.16
2022-10-27T00:47:05.267Z,14.14
2022-10-27T00:49:38.987Z,14.13
2022-10-27T00:52:12.267Z,14.10
2022-10-27T00:54:41.482Z,14.06
2022-10-27T00:57:10.782Z,14.03
2022-10-27T00:59:38.732Z,14.01
2022-10-27T01:02:08.170Z,13.99
2022-10-27T01:04:45.935Z,13.97
2022-10-27T01:07:16.740Z,13.93
2022-10-27T01:09:44.322Z,13.88
2022-10-27T01:12:10.954Z,13.84
2022-10-27T01:14:37.657Z,13.84
2022-10-27T01:17:51.967Z,13.83
2022-10-27T01:20:52.554Z,13.75
2022-10-27T01:24:10.559Z,13.70
2022-10-27T01:26:39.934Z,13.65
2022-10-27T01:29:42.095Z,13.59
2022-10-27T01:32:30.692Z,13.54
2022-10-27T01:35:07.480Z,13.54
2022-10-27T01:37:38.082Z,13.53
2022-10-27T01:40:18.561Z,13.53
2022-10-27T01:42:57.030Z,13.51
2022-10-27T01:45:34.946Z,13.48
2022-10-27T01:48:04.415Z,13.46
2022-10-27T01:50:45.274Z,13.42
2022-10-27T01:53:21.083Z,13.41
2022-10-27T01:56:05.737Z,13.38
2022-10-27T01:59:14.392Z,13.37
2022-10-27T02:01:59.104Z,13.36
2022-10-27T02:04:46.545Z,13.33
2022-10-27T02:07:24.228Z,13.33
2022-10-27T02:09:59.337Z,13.32
2022-10-27T02:12:30.731Z,13.32
2022-10-27T02:14:59.875Z,13.31
2022-10-27T02:17:31.815Z,13.32
2022-10-27T02:20:00.229Z,13.32
2022-10-27T02:22:29.532Z,13.32
2022-10-27T02:24:56.891Z,13.33
2022-10-27T02:27:43.831Z,13.35
2022-10-27T02:30:11.136Z,13.38
2022-10-27T02:32:38.108Z,13.39
2022-10-27T02:35:06.275Z,13.40
2022-10-27T02:37:38.940Z,13.40
2022-10-27T02:40:06.729Z,13.42
2022-10-27T02:42:33.237Z,13.44
2022-10-27T02:44:59.736Z,13.45
2022-10-27T02:47:26.724Z,13.46
2022-10-27T02:49:53.262Z,13.47
2022-10-27T02:52:19.806Z,13.49
2022-10-27T02:54:48.437Z,13.50
2022-10-27T02:57:19.131Z,13.52
2022-10-27T02:59:49.605Z,13.53
2022-10-27T03:02:19.703Z,13.55
2022-10-27T03:04:46.224Z,13.55
2022-10-27T03:07:13.305Z,13.56
2022-10-27T03:09:40.034Z,13.56
2022-10-27T03:12:06.717Z,13.57
2022-10-27T03:14:33.209Z,13.59
2022-10-27T03:16:59.692Z,13.57
2022-10-27T03:19:26.243Z,13.57
2022-10-27T03:21:52.738Z,13.58
2022-10-27T03:24:19.220Z,13.56
2022-10-27T03:26:45.840Z,13.56
2022-10-27T03:29:12.695Z,13.56
2022-10-27T03:31:39.384Z,13.55
2022-10-27T03:34:06.218Z,13.55
2022-10-27T03:36:33.448Z,13.54
2022-10-27T03:39:00.529Z,13.52
2022-10-27T03:41:27.206Z,13.52
2022-10-27T03:43:53.768Z,13.51
2022-10-27T03:46:20.297Z,13.50
2022-10-27T03:48:46.959Z,13.49
2022-10-27T03:51:13.420Z,13.47
2022-10-27T03:53:39.853Z,13.47
2022-10-27T03:56:06.798Z,13.45
2022-10-27T03:58:33.334Z,13.45
2022-10-27T04:01:05.259Z,13.42
2022-10-27T04:03:32.020Z,13.40
2022-10-27T04:05:58.968Z,13.36
2022-10-27T04:08:25.544Z,13.36
2022-10-27T04:10:52.019Z,13.33
2022-10-27T04:13:18.648Z,13.29
2022-10-27T04:15:45.392Z,13.27
2022-10-27T04:18:12.387Z,13.26
2022-10-27T04:20:39.059Z,13.24
2022-10-27T04:23:05.597Z,13.22
2022-10-27T04:25:32.070Z,13.19
2022-10-27T04:28:05.601Z,13.18
2022-10-27T04:30:33.081Z,13.16
2022-10-27T04:32:59.995Z,13.14
2022-10-27T04:35:26.614Z,13.13
2022-10-27T04:37:56.443Z,13.12
2022-10-27T04:40:23.451Z,13.09
2022-10-27T04:42:50.169Z,13.07
2022-10-27T04:45:17.184Z,13.04
2022-10-27T04:47:45.312Z,13.03
2022-10-27T04:50:16.006Z,13.02
2022-10-27T04:52:44.523Z,13.01
2022-10-27T04:55:11.536Z,12.99
2022-10-27T04:57:38.052Z,12.98
2022-10-27T05:00:05.453Z,12.97
2022-10-27T05:02:34.715Z,12.95
2022-10-27T05:05:06.053Z,12.93
2022-10-27T05:07:32.588Z,12.90
2022-10-27T05:09:59.275Z,12.88
2022-10-27T05:12:25.817Z,12.86
2022-10-27T05:14:52.632Z,12.83
2022-10-27T05:17:19.769Z,12.82
2022-10-27T05:19:46.551Z,12.81
2022-10-27T05:22:13.396Z,12.79
2022-10-27T05:24:42.713Z,12.78
2022-10-27T05:27:09.352Z,12.76
2022-10-27T05:29:35.867Z,12.76
2022-10-27T05:32:02.423Z,12.74
2022-10-27T05:34:28.995Z,12.73
2022-10-27T05:36:55.460Z,12.72
2022-10-27T05:39:21.953Z,12.70
2022-10-27T05:41:48.575Z,12.69
2022-10-27T05:44:15.124Z,12.67
2022-10-27T05:46:41.824Z,12.66
2022-10-27T05:49:08.576Z,12.65
2022-10-27T05:51:35.268Z,12.64
2022-10-27T05:54:01.774Z,12.61
2022-10-27T05:56:28.476Z,12.59
2022-10-27T05:58:55.099Z,12.61
2022-10-27T06:01:21.922Z,12.60
2022-10-27T06:03:48.529Z,12.61
2022-10-27T06:06:15.131Z,12.61
2022-10-27T06:08:41.795Z,12.59
2022-10-27T06:11:08.517Z,12.59
2022-10-27T06:13:35.030Z,12.59
2022-10-27T06:16:01.579Z,12.59
2022-10-27T06:18:28.178Z,12.59
2022-10-27T06:20:54.765Z,12.58
2022-10-27T06:23:21.380Z,12.58
2022-10-27T06:25:47.917Z,12.59
2022-10-27T06:28:15.091Z,12.57
2022-10-27T06:30:43.417Z,12.57
2022-10-27T06:33:10.079Z,12.61
2022-10-27T06:35:36.665Z,12.63
2022-10-27T06:38:03.652Z,12.67
2022-10-27T06:40:30.402Z,12.72
2022-10-27T06:43:06.574Z,12.78
2022-10-27T06:45:36.355Z,12.86
2022-10-27T06:48:03.898Z,12.94
2022-10-27T06:50:32.069Z,13.01
2022-10-27T06:52:59.193Z,13.08
2022-10-27T06:55:26.047Z,13.16
2022-10-27T06:57:53.649Z,13.24
2022-10-27T07:00:21.280Z,13.32
2022-10-27T07:02:48.159Z,13.40
2022-10-27T07:05:15.390Z,13.48
2022-10-27T07:07:46.564Z,13.53
2022-10-27T07:10:13.501Z,13.61
2022-10-27T07:12:40.469Z,13.67
2022-10-27T07:15:07.601Z,13.73
2022-10-27T07:17:34.513Z,13.80
2022-10-27T07:20:01.098Z,13.85
2022-10-27T07:22:27.753Z,13.90
2022-10-27T07:24:54.383Z,13.96
2022-10-27T07:27:20.988Z,14.01
2022-10-27T07:29:52.356Z,14.05
2022-10-27T07:32:20.225Z,14.09
2022-10-27T07:34:46.934Z,14.13
2022-10-27T07:37:13.697Z,14.16
2022-10-27T07:39:40.352Z,14.20
2022-10-27T07:42:07.296Z,14.24
2022-10-27T07:44:34.268Z,14.27
2022-10-27T07:47:01.166Z,14.29
2022-10-27T07:49:27.883Z,14.35
2022-10-27T07:51:54.506Z,14.38
2022-10-27T07:54:21.317Z,14.41
2022-10-27T07:56:48.716Z,14.44
2022-10-27T07:59:15.559Z,14.47
2022-10-27T08:01:42.391Z,14.52
2022-10-27T08:04:14.481Z,14.56
2022-10-27T08:06:41.362Z,14.58
2022-10-27T08:09:16.426Z,14.62
2022-10-27T08:11:47.690Z,14.66
2022-10-27T08:14:14.392Z,14.72
2022-10-27T08:16:41.151Z,14.76
2022-10-27T08:19:07.721Z,14.82
2022-10-27T08:21:34.266Z,14.86
2022-10-27T08:24:00.870Z,14.93
2022-10-27T08:26:27.558Z,14.99
2022-10-27T08:28:54.317Z,15.05
2022-10-27T08:31:22.882Z,15.12
2022-10-27T08:33:49.612Z,15.18
2022-10-27T08:36:16.653Z,15.22
2022-10-27T08:38:43.440Z,15.28
2022-10-27T08:41:37.593Z,15.33
2022-10-27T08:44:16.478Z,15.40
2022-10-27T08:46:45.149Z,15.46
2022-10-27T08:49:28.417Z,15.52
2022-10-27T08:52:00.727Z,15.59
2022-10-27T08:54:28.427Z,15.67
2022-10-27T08:56:58.760Z,15.73
2022-10-27T08:59:26.812Z,15.81
2022-10-27T09:02:02.913Z,15.86
2022-10-27T09:04:53.704Z,15.95
2022-10-27T09:07:26.364Z,15.99
2022-10-27T09:09:56.164Z,16.05
2022-10-27T09:12:41.672Z,16.14
2022-10-27T09:15:42.486Z,16.24
2022-10-27T09:18:29.867Z,16.28
2022-10-27T09:21:01.421Z,16.36
2022-10-27T09:23:39.622Z,16.41
2022-10-27T09:26:10.336Z,16.51
2022-10-27T09:28:43.481Z,16.57
2022-10-27T09:31:25.318Z,16.66
2022-10-27T09:33:59.249Z,16.71
2022-10-27T09:36:26.027Z,16.76
2022-10-27T09:38:52.831Z,16.83
2022-10-27T09:41:19.622Z,16.90
2022-10-27T09:43:58.677Z,16.93
2022-10-27T09:46:28.364Z,16.99
2022-10-27T09:48:59.012Z,17.04
2022-10-27T09:51:31.929Z,17.08
2022-10-27T09:54:00.481Z,17.12
2022-10-27T09:56:30.038Z,17.18
2022-10-27T09:59:01.073Z,17.22
2022-10-27T10:01:49.081Z,17.30
2022-10-27T10:04:20.551Z,17.33
2022-10-27T10:06:56.711Z,17.40
2022-10-27T10:09:30.323Z,17.47
2022-10-27T10:12:22.953Z,17.55
2022-10-27T10:14:51.993Z,17.62
2022-10-27T10:17:22.111Z,17.70
2022-10-27T10:19:49.775Z,17.79
2022-10-27T10:22:24.052Z,17.92
2022-10-27T10:24:55.764Z,17.94
2022-10-27T10:27:28.321Z,18.03
2022-10-27T10:30:00.747Z,18.10
2022-10-27T10:32:31.414Z,18.16
2022-10-27T10:35:03.136Z,18.18
2022-10-27T10:37:34.568Z,18.24
2022-10-27T10:40:13.573Z,18.29
2022-10-27T10:42:49.570Z,18.33
2022-10-27T10:45:22.249Z,18.36
2022-10-27T10:47:54.940Z,18.40
2022-10-27T10:50:22.944Z,18.41
2022-10-27T10:52:52.560Z,18.44
2022-10-27T10:55:27.409Z,18.49
2022-10-27T10:57:56.839Z,18.52
2022-10-27T11:00:24.052Z,18.54
2022-10-27T11:03:02.595Z,18.58
2022-10-27T11:08:22.606Z,18.63
2022-10-27T11:10:50.576Z,18.65
2022-10-27T11:13:25.784Z,18.68
2022-10-27T11:16:01.419Z,18.70
2022-10-27T11:18:36.839Z,18.72
2022-10-27T11:21:14.408Z,18.75
2022-10-27T11:23:51.336Z,18.77
2022-10-27T11:26:25.788Z,18.81
2022-10-27T11:29:01.927Z,18.85
2022-10-27T11:31:44.800Z,18.90
2022-10-27T11:34:49.955Z,18.94
2022-10-27T11:37:46.263Z,18.97
2022-10-27T11:40:27.324Z,19.01
2022-10-27T11:43:03.530Z,19.05
2022-10-27T11:45:35.385Z,19.12
2022-10-27T11:48:14.063Z,19.16
2022-10-27T11:50:51.666Z,19.20
2022-10-27T11:53:18.905Z,19.25
2022-10-27T11:56:04.174Z,19.29
2022-10-27T11:58:54.755Z,19.34
2022-10-27T12:01:33.553Z,19.37
2022-10-27T12:04:08.001Z,19.38
2022-10-27T12:06:55.809Z,19.41
2022-10-27T12:09:33.596Z,19.45
2022-10-27T12:12:16.017Z,19.48
2022-10-27T12:15:06.583Z,19.50
2022-10-27T12:17:50.693Z,19.50
2022-10-27T12:20:26.986Z,19.52
2022-10-27T12:23:04.446Z,19.51
2022-10-27T12:25:38.940Z,19.52
2022-10-27T12:28:10.806Z,19.49
2022-10-27T12:30:42.172Z,19.50
2022-10-27T12:33:25.233Z,19.49
2022-10-27T12:36:03.175Z,19.48
2022-10-27T12:38:44.868Z,19.46
2022-10-27T12:41:35.057Z,19.47
2022-10-27T12:44:23.272Z,19.46
2022-10-27T12:47:14.550Z,19.50
2022-10-27T12:49:44.052Z,19.50
2022-10-27T12:52:24.734Z,19.50
2022-10-27T12:55:12.588Z,19.55
2022-10-27T12:57:57.386Z,19.55
2022-10-27T13:03:23.361Z,19.62
2022-10-27T13:06:04.475Z,19.64
2022-10-27T13:08:52.992Z,19.67
2022-10-27T13:11:35.419Z,19.67
2022-10-27T13:14:22.560Z,19.68
2022-10-27T13:17:19.902Z,19.72
2022-10-27T13:20:17.640Z,19.73
2022-10-27T13:22:46.949Z,19.73
2022-10-27T13:25:19.448Z,19.74
2022-10-27T13:28:07.140Z,19.75
2022-10-27T13:30:41.225Z,19.75
2022-10-27T13:33:33.053Z,19.76
2022-10-27T13:36:27.067Z,19.80
2022-10-27T13:39:14.907Z,19.79
2022-10-27T13:42:13.841Z,19.81
2022-10-27T13:44:41.348Z,19.81
2022-10-27T13:47:07.932Z,19.84
2022-10-27T13:49:40.606Z,19.86
2022-10-27T13:52:16.485Z,19.87
2022-10-27T13:54:53.217Z,19.89
2022-10-27T13:57:56.454Z,19.88
2022-10-27T14:01:02.339Z,19.90
2022-10-27T14:03:43.463Z,19.90
2022-10-27T14:06:10.484Z,19.89
2022-10-27T14:08:49.401Z,19.91
2022-10-27T14:11:21.204Z,19.93
2022-10-27T14:13:51.445Z,19.89
2022-10-27T14:16:28.463Z,19.91
2022-10-27T14:19:05.888Z,19.89
2022-10-27T14:21:42.102Z,19.91
2022-10-27T14:24:23.533Z,19.94
2022-10-27T14:26:57.418Z,19.95
2022-10-27T14:29:25.220Z,19.96
2022-10-27T14:31:52.130Z,19.98
2022-10-27T14:34:26.450Z,19.98
2022-10-27T14:36:55.602Z,19.99
2022-10-27T14:39:35.000Z,20.00
2022-10-27T14:42:05.391Z,20.00
2022-10-27T14:44:33.911Z,20.02
2022-10-27T14:47:04.582Z,20.01
2022-10-27T14:49:54.409Z,20.06
2022-10-27T14:52:30.713Z,20.01
2022-10-27T14:54:57.528Z,20.00
2022-10-27T14:57:35.945Z,20.01
2022-10-27T15:00:19.809Z,20.01
2022-10-27T15:02:46.645Z,20.01
2022-10-27T15:05:27.156Z,20.00
2022-10-27T15:07:57.961Z,20.02
2022-10-27T15:10:32.668Z,19.99
2022-10-27T15:12:59.888Z,19.98
2022-10-27T15:15:38.443Z,19.96
2022-10-27T15:18:22.503Z,19.97
2022-10-27T15:20:51.007Z,19.94
2022-10-27T15:23:18.088Z,19.92
2022-10-27T15:25:48.045Z,19.92
2022-10-27T15:28:17.292Z,19.89
2022-10-27T15:30:44.465Z,19.87
2022-10-27T15:33:46.918Z,19.83
2022-10-27T15:36:20.327Z,19.82
2022-10-27T15:38:50.171Z,19.80
2022-10-27T15:41:28.818Z,19.76
2022-10-27T15:44:21.577Z,19.76
2022-10-27T15:46:48.651Z,19.73
2022-10-27T15:49:19.998Z,19.72
2022-10-27T15:51:59.801Z,19.70
2022-10-27T15:54:33.308Z,19.66
2022-10-27T15:57:03.289Z,19.64
2022-10-27T15:59:31.742Z,19.64
2022-10-27T16:02:13.867Z,19.61
2022-10-27T16:04:46.098Z,19.59
2022-10-27T16:07:18.365Z,19.55
2022-10-27T16:09:46.678Z,19.52
2022-10-27T16:12:21.817Z,19.50
2022-10-27T16:14:59.242Z,19.47
2022-10-27T16:17:42.902Z,19.45
2022-10-27T16:20:26.198Z,19.41
2022-10-27T16:22:53.252Z,19.38
2022-10-27T16:25:27.854Z,19.36
2022-10-27T16:27:54.434Z,19.29
2022-10-27T16:30:23.128Z,19.29
2022-10-27T16:33:01.169Z,19.27
2022-10-27T16:35:28.025Z,19.23
2022-10-27T16:37:55.032Z,19.21
2022-10-27T16:40:24.437Z,19.20
2022-10-27T16:42:53.117Z,19.16
2022-10-27T16:45:20.749Z,19.12
2022-10-27T16:47:50.150Z,19.06
2022-10-27T16:50:18.322Z,19.03
2022-10-27T16:52:45.438Z,19.00
2022-10-27T16:55:12.902Z,19.00
2022-10-27T16:57:43.555Z,18.99
2022-10-27T17:00:14.398Z,18.95
2022-10-27T17:02:41.395Z,18.95
2022-10-27T17:05:08.465Z,18.92
2022-10-27T17:07:39.084Z,18.87
2022-10-27T17:10:06.202Z,18.85
2022-10-27T17:12:32.933Z,18.84
2022-10-27T17:15:00.879Z,18.82
2022-10-27T17:17:27.874Z,18.80
2022-10-27T17:19:54.620Z,18.78
2022-10-27T17:22:21.226Z,18.77
2022-10-27T17:24:47.960Z,18.76
2022-10-27T17:27:15.560Z,18.74
2022-10-27T17:29:42.533Z,18.71
2022-10-27T17:32:09.386Z,18.68
2022-10-27T17:34:36.344Z,18.67
2022-10-27T17:37:02.851Z,18.65
2022-10-27T17:39:30.633Z,18.63
2022-10-27T17:41:57.421Z,18.58
2022-10-27T17:44:24.181Z,18.56
2022-10-27T17:46:51.088Z,18.53
2022-10-27T17:49:17.862Z,18.49
2022-10-27T17:51:44.931Z,18.44
2022-10-27T17:54:13.098Z,18.41
2022-10-27T17:56:39.727Z,18.38
2022-10-27T17:59:15.013Z,18.36
2022-10-27T18:01:49.538Z,18.35
2022-10-27T18:04:16.208Z,18.33
2022-10-27T18:06:43.495Z,18.30
2022-10-27T18:09:14.208Z,18.25
2022-10-27T18:11:42.384Z,18.19
2022-10-27T18:14:14.305Z,18.15
2022-10-27T18:16:42.189Z,18.14
2022-10-27T18:19:12.988Z,18.13
2022-10-27T18:21:46.577Z,18.12
2022-10-27T18:24:16.023Z,18.13
2022-10-27T18:26:44.236Z,18.13
2022-10-27T18:29:12.253Z,18.11
2022-10-27T18:31:40.337Z,18.12
2022-10-27T18:34:09.346Z,18.13
2022-10-27T18:36:37.625Z,18.12
2022-10-27T18:39:05.222Z,18.09
2022-10-27T18:41:36.366Z,18.08
2022-10-27T18:44:03.589Z,18.06
2022-10-27T18:46:30.571Z,18.03
2022-10-27T18:48:59.681Z,18.03
2022-10-27T18:51:40.575Z,18.03
2022-10-27T18:54:08.861Z,18.00
2022-10-27T18:56:37.358Z,18.00
2022-10-27T18:59:06.270Z,18.01
2022-10-27T19:01:37.785Z,17.99
2022-10-27T19:04:09.837Z,18.00
2022-10-27T19:06:37.178Z,18.01
2022-10-27T19:09:05.161Z,17.99
2022-10-27T19:11:35.914Z,17.99
2022-10-27T19:14:03.223Z,17.98
2022-10-27T19:16:32.774Z,17.96
2022-10-27T19:18:59.933Z,17.96
2022-10-27T19:21:29.362Z,17.95
2022-10-27T19:23:58.820Z,17.93
2022-10-27T19:26:27.919Z,17.89
2022-10-27T19:28:55.647Z,17.89
2022-10-27T19:31:25.422Z,17.87
2022-10-27T19:36:23.588Z,17.83
2022-10-27T19:39:02.416Z,17.82
2022-10-27T19:41:37.966Z,17.78
2022-10-27T19:46:49.970Z,17.80
2022-10-27T19:49:16.654Z,17.80
2022-10-27T19:51:43.554Z,17.78
2022-10-27T19:54:16.351Z,17.77
2022-10-27T19:56:48.052Z,17.77
2022-10-27T19:59:19.795Z,17.77
2022-10-27T20:01:50.583Z,17.79
2022-10-27T20:04:19.345Z,17.78
2022-10-27T20:06:48.880Z,17.75
2022-10-27T20:09:21.247Z,17.69
2022-10-27T20:11:48.922Z,17.63
2022-10-27T20:14:23.395Z,17.60
2022-10-27T20:16:52.568Z,17.55
2022-10-27T20:19:21.258Z,17.50
2022-10-27T20:21:50.065Z,17.46
2022-10-27T20:24:20.415Z,17.40
2022-10-27T20:26:49.424Z,17.35
2022-10-27T20:29:19.405Z,17.31
2022-10-27T20:31:48.804Z,17.25
2022-10-27T20:34:15.962Z,17.20
2022-10-27T20:36:43.051Z,17.16
2022-10-27T20:39:11.353Z,17.13
2022-10-27T20:41:38.615Z,17.08
2022-10-27T20:44:07.680Z,17.04
2022-10-27T20:46:35.124Z,17.01
2022-10-27T20:49:02.089Z,16.98
2022-10-27T20:51:31.305Z,16.94
2022-10-27T20:53:58.934Z,16.92
2022-10-27T20:56:34.694Z,16.88
2022-10-27T20:59:02.322Z,16.86
2022-10-27T21:01:31.725Z,16.84
2022-10-27T21:04:01.224Z,16.83
2022-10-27T21:06:30.794Z,16.79
2022-10-27T21:08:59.568Z,16.77
2022-10-27T21:11:30.518Z,16.76
2022-10-27T21:13:59.242Z,16.75
2022-10-27T21:16:34.009Z,16.74
2022-10-27T21:19:02.636Z,16.71
2022-10-27T21:21:31.224Z,16.69
2022-10-27T21:23:59.085Z,16.68
2022-10-27T21:26:25.954Z,16.67
2022-10-27T21:28:54.610Z,16.65
2022-10-27T21:31:22.976Z,16.62
2022-10-27T21:33:50.512Z,16.59
2022-10-27T21:36:17.950Z,16.58
2022-10-27T21:38:48.141Z,16.57
2022-10-27T21:41:18.327Z,16.54
2022-10-27T21:43:46.519Z,16.52
2022-10-27T21:46:15.397Z,16.50
2022-10-27T21:48:42.791Z,16.47
2022-10-27T21:51:13.006Z,16.44
2022-10-27T21:53:39.574Z,16.43
2022-10-27T21:56:08.470Z,16.41
2022-10-27T21:58:36.383Z,16.36
2022-10-27T22:01:06.157Z,16.34
2022-10-27T22:03:33.222Z,16.31
2022-10-27T22:05:59.815Z,16.30
2022-10-27T22:08:26.921Z,16.26
2022-10-27T22:10:53.470Z,16.25
2022-10-27T22:13:20.576Z,16.22
2022-10-27T22:15:47.454Z,16.20
2022-10-27T22:18:13.958Z,16.18
2022-10-27T22:20:40.599Z,16.15
2022-10-27T22:23:07.455Z,16.11
2022-10-27T22:25:40.762Z,16.09
2022-10-27T22:28:08.485Z,16.03
2022-10-27T22:30:39.256Z,16.01
2022-10-27T22:33:05.994Z,15.98
2022-10-27T22:35:33.183Z,15.97
2022-10-27T22:38:00.019Z,15.94
2022-10-27T22:40:26.840Z,15.92
2022-10-27T22:42:53.550Z,15.90
2022-10-27T22:45:20.084Z,15.89
2022-10-27T22:47:46.681Z,15.85
2022-10-27T22:50:13.160Z,15.85
2022-10-27T22:52:39.801Z,15.84
2022-10-27T22:55:07.035Z,15.82
2022-10-27T22:57:33.580Z,15.83
2022-10-27T23:00:00.547Z,15.82
2022-10-27T23:02:27.196Z,15.81
2022-10-27T23:04:53.877Z,15.81
2022-10-27T23:07:20.419Z,15.80
2022-10-27T23:09:47.117Z,15.79
2022-10-27T23:12:13.573Z,15.79
2022-10-27T23:14:40.342Z,15.79
2022-10-27T23:17:06.924Z,15.78
2022-10-27T23:19:33.582Z,15.77
2022-10-27T23:22:00.219Z,15.77
2022-10-27T23:43:07.422Z,15.60
2022-10-27T23:45:34.066Z,15.58
2022-10-27T23:48:00.741Z,15.54
2022-10-27T23:50:27.379Z,15.52
2022-10-27T23:52:54.094Z,15.50
2022-10-27T23:55:20.783Z,15.46
2022-10-27T23:57:47.211Z,15.45
